sensor_id;sensor_type;location;lat;lon;timestamp;P1;durP1;ratioP1;P2;durP2;ratioP2
67508;SDS011;54354;44.724;11.284;2022-07-29T00:00:10;11.98;;;4.80;;
67508;SDS011;54354;44.724;11.284;2022-07-29T00:02:37;7.30;;;4.93;;
67508;SDS011;54354;44.724;11.284;2022-07-29T00:05:03;10.30;;;5.10;;
67508;SDS011;54354;44.724;11.284;2022-07-29T00:07:29;14.48;;;4.80;;
67508;SDS011;54354;44.724;11.284;2022-07-29T00:09:54;12.35;;;4.47;;
67508;SDS011;54354;44.724;11.284;2022-07-29T00:12:20;10.07;;;5.05;;
67508;SDS011;54354;44.724;11.284;2022-07-29T00:14:47;9.85;;;5.60;;
67508;SDS011;54354;44.724;11.284;2022-07-29T00:17:13;9.15;;;4.95;;
67508;SDS011;54354;44.724;11.284;2022-07-29T00:19:38;10.20;;;5.10;;
67508;SDS011;54354;44.724;11.284;2022-07-29T00:22:04;8.88;;;5.63;;
67508;SDS011;54354;44.724;11.284;2022-07-29T00:24:29;15.07;;;6.00;;
67508;SDS011;54354;44.724;11.284;2022-07-29T00:26:55;9.82;;;5.78;;
67508;SDS011;54354;44.724;11.284;2022-07-29T00:29:20;11.82;;;5.18;;
67508;SDS011;54354;44.724;11.284;2022-07-29T00:31:46;13.43;;;5.93;;
67508;SDS011;54354;44.724;11.284;2022-07-29T00:34:11;16.15;;;5.90;;
67508;SDS011;54354;44.724;11.284;2022-07-29T00:36:55;12.00;;;6.18;;
67508;SDS011;54354;44.724;11.284;2022-07-29T00:39:21;8.70;;;5.63;;
67508;SDS011;54354;44.724;11.284;2022-07-29T00:41:47;12.07;;;6.15;;
67508;SDS011;54354;44.724;11.284;2022-07-29T00:44:12;9.45;;;5.80;;
67508;SDS011;54354;44.724;11.284;2022-07-29T00:46:38;11.45;;;5.85;;
67508;SDS011;54354;44.724;11.284;2022-07-29T00:49:04;10.00;;;5.63;;
67508;SDS011;54354;44.724;11.284;2022-07-29T00:51:29;12.45;;;5.32;;
67508;SDS011;54354;44.724;11.284;2022-07-29T00:53:55;9.45;;;5.57;;
67508;SDS011;54354;44.724;11.284;2022-07-29T00:56:21;15.93;;;5.32;;
67508;SDS011;54354;44.724;11.284;2022-07-29T00:58:47;7.22;;;5.10;;
67508;SDS011;54354;44.724;11.284;2022-07-29T01:01:15;12.80;;;4.88;;
67508;SDS011;54354;44.724;11.284;2022-07-29T01:03:41;11.05;;;4.95;;
67508;SDS011;54354;44.724;11.284;2022-07-29T01:06:06;10.15;;;5.43;;
67508;SDS011;54354;44.724;11.284;2022-07-29T01:08:32;12.23;;;5.50;;
67508;SDS011;54354;44.724;11.284;2022-07-29T01:10:58;9.27;;;5.10;;
67508;SDS011;54354;44.724;11.284;2022-07-29T01:13:24;9.35;;;5.78;;
67508;SDS011;54354;44.724;11.284;2022-07-29T01:15:54;9.43;;;5.60;;
67508;SDS011;54354;44.724;11.284;2022-07-29T01:18:24;11.75;;;5.55;;
67508;SDS011;54354;44.724;11.284;2022-07-29T01:21:00;16.73;;;5.50;;
67508;SDS011;54354;44.724;11.284;2022-07-29T01:29:15;11.43;;;4.72;;
67508;SDS011;54354;44.724;11.284;2022-07-29T01:34:54;8.75;;;4.70;;
67508;SDS011;54354;44.724;11.284;2022-07-29T01:37:26;6.50;;;4.68;;
67508;SDS011;54354;44.724;11.284;2022-07-29T01:39:58;12.52;;;4.70;;
67508;SDS011;54354;44.724;11.284;2022-07-29T01:42:30;9.88;;;4.65;;
67508;SDS011;54354;44.724;11.284;2022-07-29T01:47:37;5.40;;;4.68;;
67508;SDS011;54354;44.724;11.284;2022-07-29T01:50:08;8.65;;;4.40;;
67508;SDS011;54354;44.724;11.284;2022-07-29T01:52:41;9.40;;;4.50;;
67508;SDS011;54354;44.724;11.284;2022-07-29T01:55:20;7.60;;;5.15;;
67508;SDS011;54354;44.724;11.284;2022-07-29T01:57:49;7.40;;;5.03;;
67508;SDS011;54354;44.724;11.284;2022-07-29T02:00:16;9.70;;;4.90;;
67508;SDS011;54354;44.724;11.284;2022-07-29T02:02:43;13.43;;;5.00;;
67508;SDS011;54354;44.724;11.284;2022-07-29T02:05:12;10.43;;;5.45;;
67508;SDS011;54354;44.724;11.284;2022-07-29T02:07:41;15.55;;;5.32;;
67508;SDS011;54354;44.724;11.284;2022-07-29T02:10:08;11.20;;;5.10;;
67508;SDS011;54354;44.724;11.284;2022-07-29T02:12:36;8.27;;;5.20;;
67508;SDS011;54354;44.724;11.284;2022-07-29T02:15:04;8.43;;;5.95;;
67508;SDS011;54354;44.724;11.284;2022-07-29T02:17:35;10.98;;;5.93;;
67508;SDS011;54354;44.724;11.284;2022-07-29T02:20:07;9.75;;;6.20;;
67508;SDS011;54354;44.724;11.284;2022-07-29T02:22:35;13.48;;;6.38;;
67508;SDS011;54354;44.724;11.284;2022-07-29T02:25:02;14.48;;;6.22;;
67508;SDS011;54354;44.724;11.284;2022-07-29T02:27:30;13.00;;;6.78;;
67508;SDS011;54354;44.724;11.284;2022-07-29T02:29:58;10.25;;;5.68;;
67508;SDS011;54354;44.724;11.284;2022-07-29T02:32:26;11.50;;;6.43;;
67508;SDS011;54354;44.724;11.284;2022-07-29T02:34:54;10.73;;;6.03;;
67508;SDS011;54354;44.724;11.284;2022-07-29T02:37:21;15.60;;;5.72;;
67508;SDS011;54354;44.724;11.284;2022-07-29T02:39:48;8.15;;;5.47;;
67508;SDS011;54354;44.724;11.284;2022-07-29T02:42:18;7.20;;;5.50;;
67508;SDS011;54354;44.724;11.284;2022-07-29T02:44:47;8.67;;;5.80;;
67508;SDS011;54354;44.724;11.284;2022-07-29T02:47:56;11.90;;;6.18;;
67508;SDS011;54354;44.724;11.284;2022-07-29T02:52:54;6.70;;;5.68;;
67508;SDS011;54354;44.724;11.284;2022-07-29T02:58:13;6.40;;;5.80;;
67508;SDS011;54354;44.724;11.284;2022-07-29T03:00:47;9.90;;;5.50;;
67508;SDS011;54354;44.724;11.284;2022-07-29T03:03:17;13.73;;;5.35;;
67508;SDS011;54354;44.724;11.284;2022-07-29T03:05:46;6.30;;;5.60;;
67508;SDS011;54354;44.724;11.284;2022-07-29T03:08:11;7.70;;;5.45;;
67508;SDS011;54354;44.724;11.284;2022-07-29T03:10:40;7.57;;;5.90;;
67508;SDS011;54354;44.724;11.284;2022-07-29T03:13:09;6.18;;;5.38;;
67508;SDS011;54354;44.724;11.284;2022-07-29T03:15:35;10.35;;;5.85;;
67508;SDS011;54354;44.724;11.284;2022-07-29T03:18:02;9.27;;;5.65;;
67508;SDS011;54354;44.724;11.284;2022-07-29T03:20:27;8.98;;;5.68;;
67508;SDS011;54354;44.724;11.284;2022-07-29T03:22:53;7.82;;;5.90;;
67508;SDS011;54354;44.724;11.284;2022-07-29T03:25:19;8.00;;;5.90;;
67508;SDS011;54354;44.724;11.284;2022-07-29T03:27:45;9.98;;;5.85;;
67508;SDS011;54354;44.724;11.284;2022-07-29T03:30:11;12.60;;;5.95;;
67508;SDS011;54354;44.724;11.284;2022-07-29T03:32:38;8.50;;;5.38;;
67508;SDS011;54354;44.724;11.284;2022-07-29T03:35:05;9.02;;;5.40;;
67508;SDS011;54354;44.724;11.284;2022-07-29T03:37:32;9.43;;;6.00;;
67508;SDS011;54354;44.724;11.284;2022-07-29T03:39:58;8.30;;;5.78;;
67508;SDS011;54354;44.724;11.284;2022-07-29T03:42:28;8.85;;;5.57;;
67508;SDS011;54354;44.724;11.284;2022-07-29T03:44:57;7.40;;;5.38;;
67508;SDS011;54354;44.724;11.284;2022-07-29T03:47:26;11.35;;;6.43;;
67508;SDS011;54354;44.724;11.284;2022-07-29T03:49:54;8.55;;;7.15;;
67508;SDS011;54354;44.724;11.284;2022-07-29T03:52:23;14.20;;;8.25;;
67508;SDS011;54354;44.724;11.284;2022-07-29T03:54:49;16.35;;;8.30;;
67508;SDS011;54354;44.724;11.284;2022-07-29T03:57:15;9.15;;;8.25;;
67508;SDS011;54354;44.724;11.284;2022-07-29T03:59:42;12.85;;;8.35;;
67508;SDS011;54354;44.724;11.284;2022-07-29T04:02:09;10.38;;;8.35;;
67508;SDS011;54354;44.724;11.284;2022-07-29T04:04:36;13.90;;;9.20;;
67508;SDS011;54354;44.724;11.284;2022-07-29T04:07:02;21.48;;;9.30;;
67508;SDS011;54354;44.724;11.284;2022-07-29T04:09:28;13.65;;;8.93;;
67508;SDS011;54354;44.724;11.284;2022-07-29T04:11:53;13.77;;;8.85;;
67508;SDS011;54354;44.724;11.284;2022-07-29T04:14:19;11.55;;;8.10;;
67508;SDS011;54354;44.724;11.284;2022-07-29T04:16:45;12.80;;;7.82;;
67508;SDS011;54354;44.724;11.284;2022-07-29T04:19:11;11.13;;;8.10;;
67508;SDS011;54354;44.724;11.284;2022-07-29T04:21:37;13.93;;;7.43;;
67508;SDS011;54354;44.724;11.284;2022-07-29T04:24:06;11.38;;;7.30;;
67508;SDS011;54354;44.724;11.284;2022-07-29T04:26:32;13.82;;;7.20;;
67508;SDS011;54354;44.724;11.284;2022-07-29T04:28:58;10.73;;;6.35;;
67508;SDS011;54354;44.724;11.284;2022-07-29T04:31:23;10.93;;;6.40;;
67508;SDS011;54354;44.724;11.284;2022-07-29T04:33:49;12.20;;;6.88;;
67508;SDS011;54354;44.724;11.284;2022-07-29T04:36:14;8.70;;;6.53;;
67508;SDS011;54354;44.724;11.284;2022-07-29T04:38:40;11.20;;;6.65;;
67508;SDS011;54354;44.724;11.284;2022-07-29T04:41:05;10.00;;;5.82;;
67508;SDS011;54354;44.724;11.284;2022-07-29T04:43:32;7.10;;;5.72;;
67508;SDS011;54354;44.724;11.284;2022-07-29T04:45:58;6.85;;;5.75;;
67508;SDS011;54354;44.724;11.284;2022-07-29T04:48:24;8.75;;;5.47;;
67508;SDS011;54354;44.724;11.284;2022-07-29T04:50:50;6.95;;;4.95;;
67508;SDS011;54354;44.724;11.284;2022-07-29T04:53:15;8.63;;;5.07;;
67508;SDS011;54354;44.724;11.284;2022-07-29T04:55:41;10.02;;;5.55;;
67508;SDS011;54354;44.724;11.284;2022-07-29T04:58:06;8.32;;;5.40;;
67508;SDS011;54354;44.724;11.284;2022-07-29T05:00:32;6.95;;;4.55;;
67508;SDS011;54354;44.724;11.284;2022-07-29T05:02:59;8.43;;;4.80;;
67508;SDS011;54354;44.724;11.284;2022-07-29T05:05:24;12.57;;;5.00;;
67508;SDS011;54354;44.724;11.284;2022-07-29T05:07:50;9.43;;;4.72;;
67508;SDS011;54354;44.724;11.284;2022-07-29T05:10:15;9.98;;;5.80;;
67508;SDS011;54354;44.724;11.284;2022-07-29T05:12:41;6.95;;;6.05;;
67508;SDS011;54354;44.724;11.284;2022-07-29T05:15:06;9.82;;;6.28;;
67508;SDS011;54354;44.724;11.284;2022-07-29T05:17:32;14.50;;;6.22;;
67508;SDS011;54354;44.724;11.284;2022-07-29T05:19:58;10.27;;;5.80;;
67508;SDS011;54354;44.724;11.284;2022-07-29T05:22:24;8.80;;;5.57;;
67508;SDS011;54354;44.724;11.284;2022-07-29T05:24:49;6.82;;;5.00;;
67508;SDS011;54354;44.724;11.284;2022-07-29T05:27:15;7.10;;;4.80;;
67508;SDS011;54354;44.724;11.284;2022-07-29T05:29:40;9.77;;;4.90;;
67508;SDS011;54354;44.724;11.284;2022-07-29T05:32:06;6.70;;;5.07;;
67508;SDS011;54354;44.724;11.284;2022-07-29T05:34:32;9.25;;;4.95;;
67508;SDS011;54354;44.724;11.284;2022-07-29T05:36:57;5.85;;;5.13;;
67508;SDS011;54354;44.724;11.284;2022-07-29T05:39:23;9.60;;;4.65;;
67508;SDS011;54354;44.724;11.284;2022-07-29T05:41:49;8.73;;;4.90;;
67508;SDS011;54354;44.724;11.284;2022-07-29T05:44:14;9.63;;;4.40;;
67508;SDS011;54354;44.724;11.284;2022-07-29T05:46:40;9.38;;;4.50;;
67508;SDS011;54354;44.724;11.284;2022-07-29T05:49:06;6.82;;;4.45;;
67508;SDS011;54354;44.724;11.284;2022-07-29T05:51:32;4.90;;;4.22;;
67508;SDS011;54354;44.724;11.284;2022-07-29T05:53:58;10.70;;;5.00;;
67508;SDS011;54354;44.724;11.284;2022-07-29T05:56:24;7.53;;;5.00;;
67508;SDS011;54354;44.724;11.284;2022-07-29T05:58:50;9.38;;;5.70;;
67508;SDS011;54354;44.724;11.284;2022-07-29T06:01:15;9.20;;;5.05;;
67508;SDS011;54354;44.724;11.284;2022-07-29T06:03:41;9.85;;;4.60;;
67508;SDS011;54354;44.724;11.284;2022-07-29T06:06:06;8.05;;;4.38;;
67508;SDS011;54354;44.724;11.284;2022-07-29T06:08:32;8.98;;;4.20;;
67508;SDS011;54354;44.724;11.284;2022-07-29T06:10:59;7.35;;;4.32;;
67508;SDS011;54354;44.724;11.284;2022-07-29T06:13:25;9.13;;;3.78;;
67508;SDS011;54354;44.724;11.284;2022-07-29T06:15:51;7.18;;;3.70;;
67508;SDS011;54354;44.724;11.284;2022-07-29T06:18:16;7.78;;;3.50;;
67508;SDS011;54354;44.724;11.284;2022-07-29T06:20:42;7.10;;;2.90;;
67508;SDS011;54354;44.724;11.284;2022-07-29T06:23:07;8.05;;;3.05;;
67508;SDS011;54354;44.724;11.284;2022-07-29T06:25:34;6.50;;;2.47;;
67508;SDS011;54354;44.724;11.284;2022-07-29T06:28:01;4.10;;;1.98;;
67508;SDS011;54354;44.724;11.284;2022-07-29T06:30:27;2.83;;;2.13;;
67508;SDS011;54354;44.724;11.284;2022-07-29T06:32:53;3.58;;;1.98;;
67508;SDS011;54354;44.724;11.284;2022-07-29T06:35:19;4.72;;;2.00;;
67508;SDS011;54354;44.724;11.284;2022-07-29T06:37:45;5.38;;;2.20;;
67508;SDS011;54354;44.724;11.284;2022-07-29T06:40:11;4.63;;;2.28;;
67508;SDS011;54354;44.724;11.284;2022-07-29T06:42:55;10.80;;;2.50;;
67508;SDS011;54354;44.724;11.284;2022-07-29T06:45:21;8.23;;;2.67;;
67508;SDS011;54354;44.724;11.284;2022-07-29T06:47:46;5.47;;;2.22;;
67508;SDS011;54354;44.724;11.284;2022-07-29T06:50:12;3.17;;;2.00;;
67508;SDS011;54354;44.724;11.284;2022-07-29T06:52:39;7.32;;;2.60;;
67508;SDS011;54354;44.724;11.284;2022-07-29T06:55:06;5.05;;;2.60;;
67508;SDS011;54354;44.724;11.284;2022-07-29T06:57:32;3.55;;;1.70;;
67508;SDS011;54354;44.724;11.284;2022-07-29T06:59:57;5.05;;;2.63;;
67508;SDS011;54354;44.724;11.284;2022-07-29T07:02:23;5.03;;;2.50;;
67508;SDS011;54354;44.724;11.284;2022-07-29T07:04:48;4.85;;;2.95;;
67508;SDS011;54354;44.724;11.284;2022-07-29T07:07:14;5.95;;;3.08;;
67508;SDS011;54354;44.724;11.284;2022-07-29T07:09:39;7.88;;;1.98;;
67508;SDS011;54354;44.724;11.284;2022-07-29T07:12:05;7.82;;;2.42;;
67508;SDS011;54354;44.724;11.284;2022-07-29T07:14:31;4.38;;;2.00;;
67508;SDS011;54354;44.724;11.284;2022-07-29T07:16:57;5.28;;;2.30;;
67508;SDS011;54354;44.724;11.284;2022-07-29T07:19:22;7.35;;;2.35;;
67508;SDS011;54354;44.724;11.284;2022-07-29T07:21:48;4.47;;;2.30;;
67508;SDS011;54354;44.724;11.284;2022-07-29T07:24:13;8.73;;;2.50;;
67508;SDS011;54354;44.724;11.284;2022-07-29T07:26:38;7.78;;;2.58;;
67508;SDS011;54354;44.724;11.284;2022-07-29T07:29:05;7.07;;;2.63;;
67508;SDS011;54354;44.724;11.284;2022-07-29T07:31:30;5.45;;;1.83;;
67508;SDS011;54354;44.724;11.284;2022-07-29T07:33:56;4.78;;;2.50;;
67508;SDS011;54354;44.724;11.284;2022-07-29T07:36:22;4.88;;;2.25;;
67508;SDS011;54354;44.724;11.284;2022-07-29T07:38:48;4.97;;;2.30;;
67508;SDS011;54354;44.724;11.284;2022-07-29T07:41:14;6.38;;;2.63;;
67508;SDS011;54354;44.724;11.284;2022-07-29T07:43:39;2.90;;;1.85;;
67508;SDS011;54354;44.724;11.284;2022-07-29T07:46:05;4.80;;;2.05;;
67508;SDS011;54354;44.724;11.284;2022-07-29T07:48:30;4.75;;;2.60;;
67508;SDS011;54354;44.724;11.284;2022-07-29T07:50:56;8.40;;;2.85;;
67508;SDS011;54354;44.724;11.284;2022-07-29T07:53:21;5.63;;;2.33;;
67508;SDS011;54354;44.724;11.284;2022-07-29T07:55:47;4.50;;;2.20;;
67508;SDS011;54354;44.724;11.284;2022-07-29T07:58:12;4.55;;;2.40;;
67508;SDS011;54354;44.724;11.284;2022-07-29T08:00:38;4.57;;;2.47;;
67508;SDS011;54354;44.724;11.284;2022-07-29T08:03:04;4.22;;;2.30;;
67508;SDS011;54354;44.724;11.284;2022-07-29T08:05:29;6.30;;;2.35;;
67508;SDS011;54354;44.724;11.284;2022-07-29T08:07:55;5.30;;;2.00;;
67508;SDS011;54354;44.724;11.284;2022-07-29T08:10:20;6.28;;;3.13;;
67508;SDS011;54354;44.724;11.284;2022-07-29T08:13:08;2.70;;;2.20;;
67508;SDS011;54354;44.724;11.284;2022-07-29T08:15:35;5.85;;;2.05;;
67508;SDS011;54354;44.724;11.284;2022-07-29T08:18:01;6.03;;;2.10;;
67508;SDS011;54354;44.724;11.284;2022-07-29T08:20:27;5.68;;;2.55;;
67508;SDS011;54354;44.724;11.284;2022-07-29T08:22:52;4.00;;;2.40;;
67508;SDS011;54354;44.724;11.284;2022-07-29T08:25:18;3.15;;;2.25;;
67508;SDS011;54354;44.724;11.284;2022-07-29T08:27:48;2.30;;;2.00;;
67508;SDS011;54354;44.724;11.284;2022-07-29T08:30:14;3.08;;;2.10;;
67508;SDS011;54354;44.724;11.284;2022-07-29T08:32:40;6.60;;;2.70;;
67508;SDS011;54354;44.724;11.284;2022-07-29T08:35:05;6.85;;;2.72;;
67508;SDS011;54354;44.724;11.284;2022-07-29T08:37:31;2.65;;;2.30;;
67508;SDS011;54354;44.724;11.284;2022-07-29T08:39:56;3.35;;;2.40;;
67508;SDS011;54354;44.724;11.284;2022-07-29T08:42:22;3.05;;;2.03;;
67508;SDS011;54354;44.724;11.284;2022-07-29T08:44:48;2.40;;;2.20;;
67508;SDS011;54354;44.724;11.284;2022-07-29T08:47:14;8.32;;;2.53;;
67508;SDS011;54354;44.724;11.284;2022-07-29T08:49:39;3.83;;;2.70;;
67508;SDS011;54354;44.724;11.284;2022-07-29T08:52:05;4.45;;;2.53;;
67508;SDS011;54354;44.724;11.284;2022-07-29T08:54:31;4.05;;;2.13;;
67508;SDS011;54354;44.724;11.284;2022-07-29T08:56:57;2.10;;;1.95;;
67508;SDS011;54354;44.724;11.284;2022-07-29T08:59:25;2.58;;;2.30;;
67508;SDS011;54354;44.724;11.284;2022-07-29T09:01:52;5.55;;;2.97;;
67508;SDS011;54354;44.724;11.284;2022-07-29T09:04:19;5.85;;;2.60;;
67508;SDS011;54354;44.724;11.284;2022-07-29T09:06:49;5.93;;;2.60;;
67508;SDS011;54354;44.724;11.284;2022-07-29T09:09:18;6.25;;;2.78;;
67508;SDS011;54354;44.724;11.284;2022-07-29T09:11:44;3.85;;;2.35;;
67508;SDS011;54354;44.724;11.284;2022-07-29T09:14:11;7.97;;;2.70;;
67508;SDS011;54354;44.724;11.284;2022-07-29T09:16:52;3.90;;;2.50;;
67508;SDS011;54354;44.724;11.284;2022-07-29T09:19:20;8.63;;;2.70;;
67508;SDS011;54354;44.724;11.284;2022-07-29T09:21:53;3.10;;;2.42;;
67508;SDS011;54354;44.724;11.284;2022-07-29T09:24:22;3.80;;;2.47;;
67508;SDS011;54354;44.724;11.284;2022-07-29T09:26:48;6.22;;;3.00;;
67508;SDS011;54354;44.724;11.284;2022-07-29T09:29:15;8.82;;;2.80;;
67508;SDS011;54354;44.724;11.284;2022-07-29T09:31:42;4.38;;;2.53;;
67508;SDS011;54354;44.724;11.284;2022-07-29T09:34:16;5.85;;;2.80;;
67508;SDS011;54354;44.724;11.284;2022-07-29T09:36:47;3.17;;;2.53;;
67508;SDS011;54354;44.724;11.284;2022-07-29T09:39:14;3.65;;;2.72;;
67508;SDS011;54354;44.724;11.284;2022-07-29T09:41:52;3.17;;;2.47;;
67508;SDS011;54354;44.724;11.284;2022-07-29T09:44:19;4.50;;;2.50;;
67508;SDS011;54354;44.724;11.284;2022-07-29T09:46:55;3.00;;;2.55;;
67508;SDS011;54354;44.724;11.284;2022-07-29T09:49:22;2.95;;;2.30;;
67508;SDS011;54354;44.724;11.284;2022-07-29T09:51:58;6.50;;;2.33;;
67508;SDS011;54354;44.724;11.284;2022-07-29T09:54:26;8.77;;;2.70;;
67508;SDS011;54354;44.724;11.284;2022-07-29T09:56:53;3.83;;;2.50;;
67508;SDS011;54354;44.724;11.284;2022-07-29T09:59:19;4.32;;;2.47;;
67508;SDS011;54354;44.724;11.284;2022-07-29T10:01:48;6.68;;;2.25;;
67508;SDS011;54354;44.724;11.284;2022-07-29T10:04:14;4.00;;;2.70;;
67508;SDS011;54354;44.724;11.284;2022-07-29T10:06:59;3.33;;;2.80;;
67508;SDS011;54354;44.724;11.284;2022-07-29T10:09:26;5.30;;;2.70;;
67508;SDS011;54354;44.724;11.284;2022-07-29T10:14:35;7.13;;;2.67;;
67508;SDS011;54354;44.724;11.284;2022-07-29T10:17:01;6.35;;;2.90;;
67508;SDS011;54354;44.724;11.284;2022-07-29T10:19:28;2.60;;;2.38;;
67508;SDS011;54354;44.724;11.284;2022-07-29T10:21:56;3.03;;;2.40;;
67508;SDS011;54354;44.724;11.284;2022-07-29T10:24:28;2.50;;;2.30;;
67508;SDS011;54354;44.724;11.284;2022-07-29T10:29:21;3.42;;;2.50;;
67508;SDS011;54354;44.724;11.284;2022-07-29T10:31:52;4.25;;;2.42;;
67508;SDS011;54354;44.724;11.284;2022-07-29T10:43:14;5.65;;;2.47;;
67508;SDS011;54354;44.724;11.284;2022-07-29T10:45:44;2.80;;;2.60;;
67508;SDS011;54354;44.724;11.284;2022-07-29T10:48:12;5.25;;;2.47;;
67508;SDS011;54354;44.724;11.284;2022-07-29T10:53:24;3.90;;;2.50;;
67508;SDS011;54354;44.724;11.284;2022-07-29T10:55:56;7.15;;;2.47;;
67508;SDS011;54354;44.724;11.284;2022-07-29T10:58:22;3.65;;;2.90;;
67508;SDS011;54354;44.724;11.284;2022-07-29T11:00:52;4.18;;;2.70;;
67508;SDS011;54354;44.724;11.284;2022-07-29T11:06:06;4.13;;;2.80;;
67508;SDS011;54354;44.724;11.284;2022-07-29T11:08:32;3.42;;;2.80;;
67508;SDS011;54354;44.724;11.284;2022-07-29T11:13:45;3.08;;;2.70;;
67508;SDS011;54354;44.724;11.284;2022-07-29T11:16:20;4.18;;;2.90;;
67508;SDS011;54354;44.724;11.284;2022-07-29T11:21:38;4.05;;;2.72;;
67508;SDS011;54354;44.724;11.284;2022-07-29T11:24:12;3.22;;;2.50;;
67508;SDS011;54354;44.724;11.284;2022-07-29T11:26:42;11.73;;;3.05;;
67508;SDS011;54354;44.724;11.284;2022-07-29T11:31:50;3.92;;;2.80;;
67508;SDS011;54354;44.724;11.284;2022-07-29T11:34:32;3.03;;;2.60;;
67508;SDS011;54354;44.724;11.284;2022-07-29T11:39:40;7.60;;;2.72;;
67508;SDS011;54354;44.724;11.284;2022-07-29T11:45:00;5.88;;;2.58;;
67508;SDS011;54354;44.724;11.284;2022-07-29T11:47:27;3.00;;;2.70;;
67508;SDS011;54354;44.724;11.284;2022-07-29T11:49:54;3.35;;;2.60;;
67508;SDS011;54354;44.724;11.284;2022-07-29T11:52:22;7.05;;;2.72;;
67508;SDS011;54354;44.724;11.284;2022-07-29T11:54:48;5.63;;;2.70;;
67508;SDS011;54354;44.724;11.284;2022-07-29T11:57:19;5.03;;;2.67;;
67508;SDS011;54354;44.724;11.284;2022-07-29T11:59:46;7.35;;;2.60;;
67508;SDS011;54354;44.724;11.284;2022-07-29T12:02:13;3.65;;;2.60;;
67508;SDS011;54354;44.724;11.284;2022-07-29T12:04:49;3.50;;;2.70;;
67508;SDS011;54354;44.724;11.284;2022-07-29T12:07:15;4.10;;;2.88;;
67508;SDS011;54354;44.724;11.284;2022-07-29T12:09:49;3.20;;;2.67;;
67508;SDS011;54354;44.724;11.284;2022-07-29T12:12:17;3.10;;;2.80;;
67508;SDS011;54354;44.724;11.284;2022-07-29T12:14:43;5.00;;;2.50;;
67508;SDS011;54354;44.724;11.284;2022-07-29T12:17:25;4.45;;;2.83;;
67508;SDS011;54354;44.724;11.284;2022-07-29T12:19:55;3.42;;;2.95;;
67508;SDS011;54354;44.724;11.284;2022-07-29T12:22:25;3.60;;;2.67;;
67508;SDS011;54354;44.724;11.284;2022-07-29T12:24:52;2.67;;;2.47;;
67508;SDS011;54354;44.724;11.284;2022-07-29T12:27:19;3.92;;;2.80;;
67508;SDS011;54354;44.724;11.284;2022-07-29T12:29:45;5.50;;;3.15;;
67508;SDS011;54354;44.724;11.284;2022-07-29T12:32:20;3.55;;;2.85;;
67508;SDS011;54354;44.724;11.284;2022-07-29T12:34:46;4.97;;;2.33;;
67508;SDS011;54354;44.724;11.284;2022-07-29T12:37:12;3.00;;;2.60;;
67508;SDS011;54354;44.724;11.284;2022-07-29T12:39:38;2.97;;;2.58;;
67508;SDS011;54354;44.724;11.284;2022-07-29T12:42:13;8.07;;;2.58;;
67508;SDS011;54354;44.724;11.284;2022-07-29T12:44:43;6.68;;;2.65;;
67508;SDS011;54354;44.724;11.284;2022-07-29T12:47:10;4.22;;;2.58;;
67508;SDS011;54354;44.724;11.284;2022-07-29T12:49:35;5.18;;;3.00;;
67508;SDS011;54354;44.724;11.284;2022-07-29T12:52:01;5.00;;;2.90;;
67508;SDS011;54354;44.724;11.284;2022-07-29T12:54:53;3.22;;;2.92;;
67508;SDS011;54354;44.724;11.284;2022-07-29T12:57:19;6.68;;;3.00;;
67508;SDS011;54354;44.724;11.284;2022-07-29T12:59:45;4.95;;;2.28;;
67508;SDS011;54354;44.724;11.284;2022-07-29T13:02:23;4.82;;;2.70;;
67508;SDS011;54354;44.724;11.284;2022-07-29T13:04:59;6.85;;;2.60;;
67508;SDS011;54354;44.724;11.284;2022-07-29T13:07:25;9.50;;;3.33;;
67508;SDS011;54354;44.724;11.284;2022-07-29T13:09:53;3.63;;;2.78;;
67508;SDS011;54354;44.724;11.284;2022-07-29T13:12:19;3.97;;;2.55;;
67508;SDS011;54354;44.724;11.284;2022-07-29T13:14:49;4.75;;;2.78;;
67508;SDS011;54354;44.724;11.284;2022-07-29T13:17:19;4.13;;;2.47;;
67508;SDS011;54354;44.724;11.284;2022-07-29T13:22:19;4.47;;;2.50;;
67508;SDS011;54354;44.724;11.284;2022-07-29T13:25:07;6.13;;;2.80;;
67508;SDS011;54354;44.724;11.284;2022-07-29T13:27:32;5.63;;;2.35;;
67508;SDS011;54354;44.724;11.284;2022-07-29T13:30:03;6.40;;;2.03;;
67508;SDS011;54354;44.724;11.284;2022-07-29T13:32:30;3.67;;;2.95;;
67508;SDS011;54354;44.724;11.284;2022-07-29T13:34:56;3.25;;;2.60;;
67508;SDS011;54354;44.724;11.284;2022-07-29T13:37:25;8.77;;;2.63;;
67508;SDS011;54354;44.724;11.284;2022-07-29T13:39:51;4.07;;;2.50;;
67508;SDS011;54354;44.724;11.284;2022-07-29T13:42:18;6.53;;;3.00;;
67508;SDS011;54354;44.724;11.284;2022-07-29T13:44:44;4.85;;;2.45;;
67508;SDS011;54354;44.724;11.284;2022-07-29T13:47:10;6.38;;;2.97;;
67508;SDS011;54354;44.724;11.284;2022-07-29T13:49:35;6.65;;;2.60;;
67508;SDS011;54354;44.724;11.284;2022-07-29T13:52:01;6.25;;;2.50;;
67508;SDS011;54354;44.724;11.284;2022-07-29T13:54:28;5.70;;;2.80;;
67508;SDS011;54354;44.724;11.284;2022-07-29T13:56:53;4.50;;;2.50;;
67508;SDS011;54354;44.724;11.284;2022-07-29T13:59:19;4.43;;;2.55;;
67508;SDS011;54354;44.724;11.284;2022-07-29T14:01:44;3.17;;;2.53;;
67508;SDS011;54354;44.724;11.284;2022-07-29T14:04:10;3.58;;;2.92;;
67508;SDS011;54354;44.724;11.284;2022-07-29T14:06:36;6.43;;;3.05;;
67508;SDS011;54354;44.724;11.284;2022-07-29T14:09:02;3.40;;;3.08;;
67508;SDS011;54354;44.724;11.284;2022-07-29T14:11:31;3.83;;;2.75;;
67508;SDS011;54354;44.724;11.284;2022-07-29T14:13:57;2.95;;;2.75;;
67508;SDS011;54354;44.724;11.284;2022-07-29T14:16:23;4.82;;;2.97;;
67508;SDS011;54354;44.724;11.284;2022-07-29T14:18:48;3.42;;;3.10;;
67508;SDS011;54354;44.724;11.284;2022-07-29T14:21:14;8.07;;;2.60;;
67508;SDS011;54354;44.724;11.284;2022-07-29T14:23:40;5.43;;;3.15;;
67508;SDS011;54354;44.724;11.284;2022-07-29T14:26:06;5.43;;;2.67;;
67508;SDS011;54354;44.724;11.284;2022-07-29T14:28:32;3.63;;;3.10;;
67508;SDS011;54354;44.724;11.284;2022-07-29T14:30:57;5.72;;;3.42;;
67508;SDS011;54354;44.724;11.284;2022-07-29T14:33:23;5.47;;;2.40;;
67508;SDS011;54354;44.724;11.284;2022-07-29T14:35:49;3.75;;;2.60;;
67508;SDS011;54354;44.724;11.284;2022-07-29T14:38:14;5.45;;;2.90;;
67508;SDS011;54354;44.724;11.284;2022-07-29T14:40:40;5.07;;;3.10;;
67508;SDS011;54354;44.724;11.284;2022-07-29T14:43:05;3.40;;;3.03;;
67508;SDS011;54354;44.724;11.284;2022-07-29T14:45:31;4.72;;;3.10;;
67508;SDS011;54354;44.724;11.284;2022-07-29T14:47:56;4.35;;;3.38;;
67508;SDS011;54354;44.724;11.284;2022-07-29T14:50:22;3.72;;;3.20;;
67508;SDS011;54354;44.724;11.284;2022-07-29T14:52:47;6.88;;;3.30;;
67508;SDS011;54354;44.724;11.284;2022-07-29T14:55:13;5.00;;;3.58;;
67508;SDS011;54354;44.724;11.284;2022-07-29T14:57:39;3.83;;;3.42;;
67508;SDS011;54354;44.724;11.284;2022-07-29T15:00:05;3.72;;;3.40;;
67508;SDS011;54354;44.724;11.284;2022-07-29T15:02:32;7.10;;;3.78;;
67508;SDS011;54354;44.724;11.284;2022-07-29T15:04:58;4.28;;;3.45;;
67508;SDS011;54354;44.724;11.284;2022-07-29T15:07:23;4.88;;;3.45;;
67508;SDS011;54354;44.724;11.284;2022-07-29T15:09:49;4.43;;;3.20;;
67508;SDS011;54354;44.724;11.284;2022-07-29T15:12:15;7.32;;;2.90;;
67508;SDS011;54354;44.724;11.284;2022-07-29T15:14:40;7.28;;;3.47;;
67508;SDS011;54354;44.724;11.284;2022-07-29T15:17:06;4.10;;;3.20;;
67508;SDS011;54354;44.724;11.284;2022-07-29T15:19:31;3.92;;;3.55;;
67508;SDS011;54354;44.724;11.284;2022-07-29T15:21:57;4.20;;;3.30;;
67508;SDS011;54354;44.724;11.284;2022-07-29T15:24:23;4.70;;;3.60;;